Terminal Aerodrome Forecast
Issued by NWS

Home | Current Version | Previous Version | Text Only | Print | Product List | Glossary On
Versions: 1 2 3 4 5 6 7 8 9 10 11 12 13 14 15 16 17 18 19 20 21 22 23 24 25 26 27 28 29 30 31 32 33 34 35 36 37 38 39
000
FTUS46 KPQR 262323
TAFONP
TAF
KONP 262323Z 2700/2724 21009KT 5SM BR SCT015 SCT200
     FM270300 20008KT 4SM BR SCT015 OVC050
     FM270700 19009KT 4SM BR SCT009 OVC012
     FM271900 26005KT 5SM BR OVC015=

USA.gov is the U.S. government's official web portal to all federal, state and local government web resources and services.